createdAt,value
2017-10-14T00:02:01.267Z,9.00
2017-10-14T00:04:28.797Z,9.00
2017-10-14T00:06:56.354Z,8.90
2017-10-14T00:09:24.140Z,8.90
2017-10-14T00:11:51.653Z,8.80
2017-10-14T00:14:19.280Z,8.80
2017-10-14T00:16:47.817Z,8.80
2017-10-14T00:19:16.171Z,8.80
2017-10-14T00:21:44.485Z,8.80
2017-10-14T00:24:12.987Z,8.80
2017-10-14T00:26:40.538Z,8.80
2017-10-14T00:29:08.068Z,8.70
2017-10-14T00:34:09.150Z,8.60
2017-10-14T00:36:36.669Z,8.60
2017-10-14T00:39:05.195Z,8.60
2017-10-14T00:41:32.712Z,8.60
2017-10-14T00:44:00.240Z,8.50
2017-10-14T00:46:27.876Z,8.50
2017-10-14T00:48:55.389Z,8.60
2017-10-14T00:51:23.009Z,8.50
2017-10-14T00:53:52.143Z,8.40
2017-10-14T00:56:20.726Z,8.40
2017-10-14T00:58:49.028Z,8.40
2017-10-14T01:01:16.993Z,8.40
2017-10-14T01:03:44.545Z,8.40
2017-10-14T01:06:12.202Z,8.40
2017-10-14T01:08:39.808Z,8.30
2017-10-14T01:11:07.357Z,8.40
2017-10-14T01:13:34.882Z,8.40
2017-10-14T01:16:02.679Z,8.40
2017-10-14T01:18:30.262Z,8.30
2017-10-14T01:20:57.773Z,8.30
2017-10-14T01:23:25.351Z,8.30
2017-10-14T01:25:52.691Z,8.30
2017-10-14T01:28:20.199Z,8.40
2017-10-14T01:30:48.064Z,8.30
2017-10-14T01:33:15.587Z,8.30
2017-10-14T01:35:43.148Z,8.20
2017-10-14T01:38:11.050Z,8.20
2017-10-14T01:40:38.559Z,8.10
2017-10-14T01:43:06.075Z,8.10
2017-10-14T01:45:33.655Z,8.10
2017-10-14T01:48:01.192Z,8.10
2017-10-14T01:50:29.174Z,8.00
2017-10-14T01:52:57.124Z,8.00
2017-10-14T01:55:24.633Z,8.00
2017-10-14T01:57:52.162Z,7.90
2017-10-14T02:00:19.793Z,7.90
2017-10-14T02:02:47.437Z,7.90
2017-10-14T02:05:14.955Z,7.90
2017-10-14T02:07:44.868Z,7.90
2017-10-14T02:10:12.755Z,7.70
2017-10-14T02:12:40.291Z,7.80
2017-10-14T02:15:09.341Z,7.80
2017-10-14T02:17:37.650Z,7.70
2017-10-14T02:20:05.150Z,7.70
2017-10-14T02:22:32.708Z,7.60
2017-10-14T02:25:00.235Z,7.70
2017-10-14T02:27:28.615Z,7.60
2017-10-14T02:29:56.411Z,7.60
2017-10-14T02:32:23.924Z,7.60
2017-10-14T02:34:51.428Z,7.60
2017-10-14T02:37:19.820Z,7.50
2017-10-14T02:39:47.117Z,7.50
2017-10-14T02:42:14.623Z,7.50
2017-10-14T02:44:42.503Z,7.60
2017-10-14T02:47:10.017Z,7.70
2017-10-14T02:49:38.293Z,7.60
2017-10-14T02:52:06.627Z,7.50
2017-10-14T02:54:34.169Z,7.50
2017-10-14T02:57:01.703Z,7.50
2017-10-14T02:59:30.256Z,7.50
2017-10-14T03:01:57.756Z,7.50
2017-10-14T03:04:25.415Z,7.50
2017-10-14T03:06:53.003Z,7.50
2017-10-14T03:09:20.605Z,7.50
2017-10-14T03:11:48.368Z,7.50
2017-10-14T03:14:16.175Z,7.50
2017-10-14T03:16:43.728Z,7.40
2017-10-14T03:19:11.240Z,7.30
2017-10-14T03:21:39.053Z,7.30
2017-10-14T03:24:06.623Z,7.20
2017-10-14T03:26:34.132Z,7.30
2017-10-14T03:29:01.702Z,7.20
2017-10-14T03:31:29.259Z,7.30
2017-10-14T03:33:56.800Z,7.20
2017-10-14T03:36:24.731Z,7.20
2017-10-14T03:38:52.275Z,7.30
2017-10-14T03:41:19.807Z,7.30
2017-10-14T03:43:47.451Z,7.40
2017-10-14T03:46:14.955Z,7.40
2017-10-14T03:48:42.460Z,7.40
2017-10-14T03:51:10.015Z,7.50
2017-10-14T03:53:37.524Z,7.50
2017-10-14T03:56:05.800Z,7.50
2017-10-14T03:58:34.372Z,7.50
2017-10-14T04:01:01.884Z,7.50
2017-10-14T04:03:29.403Z,7.50
2017-10-14T04:05:57.725Z,7.50
2017-10-14T04:08:25.321Z,7.50
2017-10-14T04:10:52.827Z,7.50
2017-10-14T04:13:20.676Z,7.40
2017-10-14T04:15:48.179Z,7.40
2017-10-14T04:18:15.682Z,7.30
2017-10-14T04:20:43.591Z,7.30
2017-10-14T04:23:11.097Z,7.20
2017-10-14T04:25:39.494Z,7.20
2017-10-14T04:28:07.079Z,7.20
2017-10-14T04:30:35.355Z,7.10
2017-10-14T04:33:02.904Z,7.10
2017-10-14T04:35:30.865Z,7.10
2017-10-14T04:37:58.367Z,7.00
2017-10-14T04:40:25.884Z,7.00
2017-10-14T04:42:53.504Z,7.00
2017-10-14T04:45:21.007Z,7.00
2017-10-14T04:47:48.514Z,7.00
2017-10-14T04:50:16.420Z,7.00
2017-10-14T04:52:44.735Z,7.10
2017-10-14T04:55:12.048Z,7.00
2017-10-14T04:57:39.879Z,7.10
2017-10-14T05:00:08.219Z,7.20
2017-10-14T05:02:35.751Z,7.20
2017-10-14T05:05:04.071Z,7.30
2017-10-14T05:07:31.611Z,7.20
2017-10-14T05:09:59.188Z,7.30
2017-10-14T05:12:26.742Z,7.30
2017-10-14T05:14:54.245Z,7.30
2017-10-14T05:17:21.743Z,7.20
2017-10-14T05:19:49.312Z,7.30
2017-10-14T05:22:16.835Z,7.20
2017-10-14T05:24:45.839Z,6.90
2017-10-14T05:27:13.764Z,7.10
2017-10-14T05:29:41.303Z,7.20
2017-10-14T05:32:08.807Z,7.10
2017-10-14T05:34:36.612Z,7.00
2017-10-14T05:37:04.120Z,7.00
2017-10-14T05:39:31.636Z,7.00
2017-10-14T05:41:59.175Z,7.00
2017-10-14T05:44:26.679Z,7.00
2017-10-14T05:46:54.280Z,7.00
2017-10-14T05:49:22.603Z,6.90
2017-10-14T05:51:50.138Z,6.90
2017-10-14T05:54:17.651Z,6.80
2017-10-14T05:56:45.260Z,6.90
2017-10-14T05:59:12.816Z,6.90
2017-10-14T06:01:40.326Z,6.90
2017-10-14T06:04:08.143Z,7.00
2017-10-14T06:06:35.685Z,7.00
2017-10-14T06:09:03.791Z,7.10
2017-10-14T06:11:31.375Z,7.10
2017-10-14T06:13:58.906Z,7.20
2017-10-14T06:16:26.415Z,7.30
2017-10-14T06:18:54.230Z,7.40
2017-10-14T06:21:21.768Z,7.50
2017-10-14T06:23:50.040Z,7.70
2017-10-14T06:26:18.715Z,7.70
2017-10-14T06:28:46.995Z,7.80
2017-10-14T06:31:15.991Z,8.10
2017-10-14T06:33:44.171Z,8.10
2017-10-14T06:36:12.479Z,8.90
2017-10-14T06:38:39.991Z,8.90
2017-10-14T06:41:07.593Z,9.20
2017-10-14T06:43:35.123Z,9.60
2017-10-14T06:46:02.643Z,10.10
2017-10-14T06:48:30.750Z,10.30
2017-10-14T06:50:59.037Z,10.80
2017-10-14T06:53:26.656Z,10.70
2017-10-14T06:55:54.598Z,10.50
2017-10-14T06:58:22.124Z,10.40
2017-10-14T07:00:49.627Z,10.70
2017-10-14T07:03:17.192Z,11.00
2017-10-14T07:05:45.171Z,11.30
2017-10-14T07:08:12.707Z,11.40
2017-10-14T07:10:40.277Z,11.50
2017-10-14T07:13:07.796Z,11.80
2017-10-14T07:15:36.084Z,11.80
2017-10-14T07:18:03.632Z,11.80
2017-10-14T07:20:31.268Z,12.00
2017-10-14T07:22:58.807Z,12.20
2017-10-14T07:25:26.974Z,12.70
2017-10-14T07:27:54.475Z,13.60
2017-10-14T07:30:21.979Z,13.60
2017-10-14T07:32:50.970Z,13.40
2017-10-14T07:35:18.546Z,13.40
2017-10-14T07:37:46.048Z,13.60
2017-10-14T07:40:14.323Z,13.70
2017-10-14T07:42:43.367Z,13.50
2017-10-14T07:45:10.871Z,13.40
2017-10-14T07:47:39.156Z,12.20
2017-10-14T07:50:08.843Z,11.90
2017-10-14T07:52:36.355Z,11.90
2017-10-14T07:55:03.851Z,12.40
2017-10-14T07:57:31.895Z,13.20
2017-10-14T07:59:59.416Z,13.70
2017-10-14T08:02:27.018Z,14.40
2017-10-14T08:04:54.556Z,14.20
2017-10-14T08:07:22.339Z,14.60
2017-10-14T08:09:49.839Z,15.10
2017-10-14T08:12:17.639Z,15.40
2017-10-14T08:14:45.140Z,16.20
2017-10-14T08:17:12.694Z,16.60
2017-10-14T08:19:40.506Z,16.90
2017-10-14T08:22:08.071Z,16.20
2017-10-14T08:24:35.626Z,15.60
2017-10-14T08:27:03.638Z,15.30
2017-10-14T08:29:31.209Z,15.00
2017-10-14T08:31:58.744Z,14.90
2017-10-14T08:34:26.331Z,14.60
2017-10-14T08:36:53.944Z,14.10
2017-10-14T08:39:21.518Z,13.70
2017-10-14T08:41:49.384Z,13.40
2017-10-14T08:44:17.086Z,13.20
2017-10-14T08:46:44.652Z,13.00
2017-10-14T08:49:12.447Z,12.90
2017-10-14T08:51:40.504Z,12.80
2017-10-14T08:54:08.036Z,12.60
2017-10-14T08:56:35.595Z,12.80
2017-10-14T08:59:03.104Z,13.10
2017-10-14T09:01:30.607Z,13.30
2017-10-14T09:03:58.455Z,13.30
2017-10-14T09:06:25.965Z,13.40
2017-10-14T09:08:53.704Z,13.40
2017-10-14T09:11:21.691Z,13.60
2017-10-14T09:13:49.191Z,13.60
2017-10-14T09:16:16.696Z,13.80
2017-10-14T09:18:44.483Z,13.80
2017-10-14T09:21:11.987Z,13.90
2017-10-14T09:23:39.519Z,14.10
2017-10-14T09:26:07.468Z,14.40
2017-10-14T09:28:34.987Z,14.70
2017-10-14T09:31:02.499Z,14.70
2017-10-14T09:33:30.065Z,15.20
2017-10-14T09:35:58.346Z,15.50
2017-10-14T09:38:26.028Z,15.50
2017-10-14T09:40:53.551Z,15.80
2017-10-14T09:43:21.063Z,16.00
2017-10-14T09:45:48.571Z,16.00
2017-10-14T09:48:16.900Z,16.50
2017-10-14T09:50:44.415Z,16.50
2017-10-14T09:53:11.959Z,17.60
2017-10-14T09:55:39.519Z,19.20
2017-10-14T09:58:07.456Z,21.30
2017-10-14T10:00:34.980Z,23.00
2017-10-14T10:03:02.803Z,25.70
2017-10-14T10:05:30.797Z,26.80
2017-10-14T10:07:58.338Z,26.80
2017-10-14T10:10:25.899Z,28.50
2017-10-14T10:12:53.399Z,29.80
2017-10-14T10:15:20.902Z,30.70
2017-10-14T10:17:48.835Z,31.30
2017-10-14T10:20:16.335Z,31.00
2017-10-14T10:22:43.839Z,32.00
2017-10-14T10:25:11.414Z,32.80
2017-10-14T10:27:38.927Z,33.40
2017-10-14T10:30:06.439Z,34.10
2017-10-14T10:32:33.983Z,33.90
2017-10-14T10:35:01.519Z,34.40
2017-10-14T10:37:29.109Z,34.70
2017-10-14T10:39:56.672Z,33.60
2017-10-14T10:42:24.175Z,33.10
2017-10-14T10:44:51.679Z,33.50
2017-10-14T10:47:19.691Z,33.00
2017-10-14T10:49:47.186Z,31.80
2017-10-14T10:52:15.556Z,32.00
2017-10-14T10:54:43.476Z,32.00
2017-10-14T10:57:10.988Z,31.90
2017-10-14T10:59:39.300Z,31.70
2017-10-14T11:02:07.086Z,31.70
2017-10-14T11:04:34.579Z,31.50
2017-10-14T11:07:02.072Z,31.90
2017-10-14T11:09:29.859Z,32.50
2017-10-14T11:11:57.362Z,32.80
2017-10-14T11:14:25.858Z,30.80
2017-10-14T11:16:54.175Z,28.50
2017-10-14T11:19:21.722Z,28.70
2017-10-14T11:21:49.239Z,29.40
2017-10-14T11:24:18.682Z,28.00
2017-10-14T11:26:46.227Z,28.00
2017-10-14T11:29:13.762Z,26.80
2017-10-14T11:31:41.367Z,26.90
2017-10-14T11:34:08.868Z,27.00
2017-10-14T11:36:36.379Z,26.50
2017-10-14T11:39:04.427Z,25.40
2017-10-14T11:41:32.108Z,24.70
2017-10-14T11:43:59.663Z,23.40
2017-10-14T11:46:27.223Z,22.60
2017-10-14T11:48:54.736Z,22.40
2017-10-14T11:51:22.270Z,22.00
2017-10-14T11:53:50.855Z,21.90
2017-10-14T11:56:18.400Z,21.50
2017-10-14T11:58:45.911Z,20.90
2017-10-14T12:01:13.743Z,20.70
2017-10-14T12:03:41.251Z,20.70
2017-10-14T12:06:08.756Z,20.80
2017-10-14T12:08:36.307Z,20.80
2017-10-14T12:11:03.887Z,21.00
2017-10-14T12:13:31.416Z,20.70
2017-10-14T12:15:59.251Z,20.60
2017-10-14T12:18:27.651Z,20.50
2017-10-14T12:20:55.297Z,20.50
2017-10-14T12:23:22.880Z,20.40
2017-10-14T12:25:50.381Z,20.30
2017-10-14T12:28:17.972Z,20.40
2017-10-14T12:30:46.561Z,20.50
2017-10-14T12:33:14.060Z,20.40
2017-10-14T12:35:41.768Z,20.60
2017-10-14T12:38:10.082Z,20.90
2017-10-14T12:40:37.575Z,20.90
2017-10-14T12:43:05.141Z,20.70
2017-10-14T12:45:32.700Z,20.60
2017-10-14T12:48:00.214Z,20.80
2017-10-14T12:50:27.835Z,20.80
2017-10-14T12:52:55.412Z,20.80
2017-10-14T12:55:23.739Z,20.90
2017-10-14T12:57:51.255Z,20.70
2017-10-14T13:00:19.099Z,20.80
2017-10-14T13:02:46.604Z,20.70
2017-10-14T13:05:14.208Z,20.70
2017-10-14T13:07:41.763Z,20.80
2017-10-14T13:10:09.271Z,20.80
2017-10-14T13:12:36.804Z,20.90
2017-10-14T13:15:04.632Z,20.80
2017-10-14T13:17:32.135Z,20.80
2017-10-14T13:19:59.711Z,20.90
2017-10-14T13:22:28.571Z,21.00
2017-10-14T13:24:56.072Z,21.00
2017-10-14T13:27:23.588Z,21.10
2017-10-14T13:29:51.390Z,21.20
2017-10-14T13:32:19.032Z,21.20
2017-10-14T13:34:47.360Z,21.30
2017-10-14T13:37:15.163Z,21.30
2017-10-14T13:39:42.715Z,21.40
2017-10-14T13:42:10.220Z,21.40
2017-10-14T13:44:37.799Z,21.50
2017-10-14T13:47:05.449Z,21.50
2017-10-14T13:49:32.955Z,21.60
2017-10-14T13:52:00.523Z,21.60
2017-10-14T13:54:28.791Z,21.60
2017-10-14T13:56:56.295Z,21.60
2017-10-14T13:59:24.082Z,21.60
2017-10-14T14:01:51.627Z,21.60
2017-10-14T14:04:19.236Z,21.60
2017-10-14T14:06:48.727Z,21.60
2017-10-14T14:09:16.248Z,21.60
2017-10-14T14:11:43.812Z,21.60
2017-10-14T14:14:11.562Z,21.50
2017-10-14T14:16:39.099Z,21.50
2017-10-14T14:19:06.646Z,21.60
2017-10-14T14:21:35.408Z,21.60
2017-10-14T14:24:03.012Z,21.60
2017-10-14T14:26:31.290Z,21.50
2017-10-14T14:28:59.603Z,21.40
2017-10-14T14:31:27.107Z,21.40
2017-10-14T14:33:54.651Z,21.20
2017-10-14T14:36:22.214Z,21.20
2017-10-14T14:38:49.721Z,21.10
2017-10-14T14:41:17.274Z,21.00
2017-10-14T14:43:45.199Z,20.90
2017-10-14T14:46:12.771Z,20.90
2017-10-14T14:48:40.268Z,20.80
2017-10-14T14:51:07.972Z,20.80
2017-10-14T14:53:35.470Z,20.70
2017-10-14T14:56:02.971Z,20.60
2017-10-14T14:58:30.702Z,20.60
2017-10-14T15:00:58.243Z,20.50
2017-10-14T15:03:25.785Z,20.40
2017-10-14T15:05:53.339Z,20.40
2017-10-14T15:08:20.849Z,20.40
2017-10-14T15:10:48.496Z,20.30
2017-10-14T15:13:16.846Z,20.30
2017-10-14T15:15:44.416Z,20.20
2017-10-14T15:18:12.065Z,20.20
2017-10-14T15:20:39.625Z,20.20
2017-10-14T15:23:07.137Z,20.10
2017-10-14T15:25:34.647Z,20.10
2017-10-14T15:28:02.371Z,20.00
2017-10-14T15:30:29.872Z,20.00
2017-10-14T15:32:57.398Z,19.90
2017-10-14T15:35:25.068Z,19.80
2017-10-14T15:37:52.576Z,19.80
2017-10-14T15:40:20.083Z,19.80
2017-10-14T15:42:48.715Z,19.80
2017-10-14T15:45:16.235Z,19.70
2017-10-14T15:47:44.005Z,19.60
2017-10-14T15:50:11.640Z,19.60
2017-10-14T15:52:39.151Z,19.50
2017-10-14T15:55:06.765Z,19.50
2017-10-14T15:57:35.507Z,19.40
2017-10-14T16:00:03.023Z,19.30
2017-10-14T16:02:30.519Z,19.20
2017-10-14T16:04:59.644Z,18.80
2017-10-14T16:07:27.153Z,18.80
2017-10-14T16:09:54.647Z,18.70
2017-10-14T16:12:22.594Z,18.70
2017-10-14T16:14:50.917Z,18.50
2017-10-14T16:17:18.424Z,18.50
2017-10-14T16:19:46.235Z,18.40
2017-10-14T16:22:13.761Z,18.30
2017-10-14T16:24:41.271Z,18.20
2017-10-14T16:27:08.951Z,18.00
2017-10-14T16:29:36.532Z,17.90
2017-10-14T16:32:04.104Z,17.80
2017-10-14T16:34:32.961Z,17.50
2017-10-14T16:37:00.522Z,17.50
2017-10-14T16:39:28.095Z,17.40
2017-10-14T16:41:57.161Z,17.20
2017-10-14T16:44:24.712Z,17.10
2017-10-14T16:46:52.215Z,16.90
2017-10-14T16:49:19.917Z,16.70
2017-10-14T16:51:47.428Z,16.60
2017-10-14T16:54:14.935Z,16.50
2017-10-14T16:56:42.643Z,16.40
2017-10-14T16:59:10.318Z,16.40
2017-10-14T17:01:38.595Z,16.40
2017-10-14T17:04:06.435Z,16.30
2017-10-14T17:06:34.006Z,16.20
2017-10-14T17:09:01.635Z,16.10
2017-10-14T17:11:29.192Z,15.90
2017-10-14T17:13:56.702Z,15.80
2017-10-14T17:16:24.266Z,15.70
2017-10-14T17:18:52.102Z,15.60
2017-10-14T17:21:19.716Z,15.60
2017-10-14T17:23:47.297Z,15.50
2017-10-14T17:26:15.326Z,15.40
2017-10-14T17:28:42.835Z,15.30
2017-10-14T17:31:10.355Z,15.30
2017-10-14T17:33:38.235Z,15.20
2017-10-14T17:36:05.740Z,15.30
2017-10-14T17:38:33.539Z,15.10
2017-10-14T17:41:01.116Z,15.10
2017-10-14T17:43:28.625Z,15.00
2017-10-14T17:45:56.128Z,14.90
2017-10-14T17:48:23.820Z,14.90
2017-10-14T17:50:51.375Z,14.90
2017-10-14T17:53:19.151Z,14.80
2017-10-14T17:55:46.703Z,14.60
2017-10-14T17:58:14.212Z,14.50
2017-10-14T18:00:41.795Z,14.50
2017-10-14T18:03:10.211Z,14.30
2017-10-14T18:05:37.720Z,14.30
2017-10-14T18:08:05.448Z,14.30
2017-10-14T18:10:33.012Z,14.30
2017-10-14T18:13:00.516Z,14.20
2017-10-14T18:15:28.788Z,13.90
2017-10-14T18:17:57.499Z,13.90
2017-10-14T18:20:25.031Z,13.80
2017-10-14T18:22:52.633Z,13.80
2017-10-14T18:25:20.552Z,13.80
2017-10-14T18:27:48.063Z,13.70
2017-10-14T18:30:15.785Z,13.70
2017-10-14T18:32:44.110Z,13.50
2017-10-14T18:35:11.620Z,13.50
2017-10-14T18:37:39.131Z,13.60
2017-10-14T18:40:06.715Z,13.60
2017-10-14T18:42:34.227Z,13.60
2017-10-14T18:45:01.893Z,13.50
2017-10-14T18:47:29.450Z,13.40
2017-10-14T18:49:57.071Z,13.30
2017-10-14T18:52:24.679Z,13.20
2017-10-14T18:54:52.243Z,13.10
2017-10-14T18:57:19.747Z,13.20
2017-10-14T18:59:47.243Z,13.30
2017-10-14T19:02:14.830Z,13.20
2017-10-14T19:04:42.376Z,13.20
2017-10-14T19:07:09.936Z,13.20
2017-10-14T19:09:37.630Z,13.00
2017-10-14T19:12:05.247Z,12.90
2017-10-14T19:14:32.756Z,12.90
2017-10-14T19:17:00.372Z,12.80
2017-10-14T19:19:27.919Z,12.70
2017-10-14T19:21:55.806Z,12.60
2017-10-14T19:24:23.343Z,12.70
2017-10-14T19:26:50.862Z,12.70
2017-10-14T19:29:18.371Z,12.70
2017-10-14T19:31:46.088Z,12.60
2017-10-14T19:34:13.600Z,12.60
2017-10-14T19:36:41.284Z,12.60
2017-10-14T19:39:08.844Z,12.60
2017-10-14T19:41:36.356Z,12.60
2017-10-14T19:44:04.626Z,12.70
2017-10-14T19:46:33.182Z,12.60
2017-10-14T19:49:00.697Z,12.60
2017-10-14T19:51:28.203Z,12.70
2017-10-14T19:53:56.005Z,12.70
2017-10-14T19:56:23.615Z,12.60
2017-10-14T19:58:51.115Z,12.50
2017-10-14T20:01:18.784Z,12.40
2017-10-14T20:03:46.284Z,12.40
2017-10-14T20:06:13.796Z,12.40
2017-10-14T20:08:42.423Z,12.50
2017-10-14T20:11:09.929Z,12.50
2017-10-14T20:13:38.208Z,12.20
2017-10-14T20:16:06.682Z,12.20
2017-10-14T20:18:34.196Z,12.20
2017-10-14T20:21:01.720Z,12.20
2017-10-14T20:23:29.274Z,12.10
2017-10-14T20:25:57.574Z,12.00
2017-10-14T20:28:25.246Z,12.00
2017-10-14T20:30:53.162Z,12.00
2017-10-14T20:33:20.672Z,12.00
2017-10-14T20:35:48.183Z,12.00
2017-10-14T20:38:15.768Z,12.00
2017-10-14T20:40:43.310Z,12.00
2017-10-14T20:43:10.887Z,11.90
2017-10-14T20:45:39.006Z,11.90
2017-10-14T20:48:06.544Z,11.90
2017-10-14T20:50:34.070Z,11.90
2017-10-14T20:53:01.628Z,11.80
2017-10-14T20:55:29.708Z,11.70
2017-10-14T20:57:57.982Z,11.60
2017-10-14T21:00:26.308Z,11.50
2017-10-14T21:02:53.883Z,11.40
2017-10-14T21:05:21.396Z,11.40
2017-10-14T21:07:48.965Z,11.40
2017-10-14T21:10:17.212Z,11.40
2017-10-14T21:12:44.744Z,11.40
2017-10-14T21:15:12.327Z,11.40
2017-10-14T21:17:39.847Z,11.30
2017-10-14T21:20:07.574Z,11.30
2017-10-14T21:22:35.135Z,11.20
2017-10-14T21:25:02.648Z,11.20
2017-10-14T21:27:30.168Z,11.20
2017-10-14T21:29:57.800Z,11.20
2017-10-14T21:32:26.103Z,11.10
2017-10-14T21:34:53.607Z,11.00
2017-10-14T21:37:21.450Z,11.00
2017-10-14T21:39:48.964Z,11.00
2017-10-14T21:42:16.624Z,11.10
2017-10-14T21:44:44.427Z,11.10
2017-10-14T21:47:11.947Z,11.10
2017-10-14T21:49:39.486Z,11.00
2017-10-14T21:52:07.480Z,11.00
2017-10-14T21:54:34.991Z,11.00
2017-10-14T21:57:02.508Z,10.90
2017-10-14T21:59:30.103Z,10.90
2017-10-14T22:01:57.682Z,10.80
2017-10-14T22:04:25.443Z,10.80
2017-10-14T22:06:53.019Z,10.90
2017-10-14T22:09:21.300Z,10.80
2017-10-14T22:11:48.865Z,10.80
2017-10-14T22:14:17.394Z,10.70
2017-10-14T22:16:44.907Z,10.70
2017-10-14T22:19:12.543Z,10.70
2017-10-14T22:21:40.052Z,10.80
2017-10-14T22:24:07.591Z,10.80
2017-10-14T22:26:35.959Z,10.80
2017-10-14T22:29:03.483Z,10.80
2017-10-14T22:31:31.264Z,10.80
2017-10-14T22:33:58.924Z,10.80
2017-10-14T22:36:26.436Z,10.80
2017-10-14T22:38:54.033Z,10.80
2017-10-14T22:41:21.591Z,10.90
2017-10-14T22:43:49.326Z,10.90
2017-10-14T22:46:16.849Z,10.80
2017-10-14T22:48:44.391Z,10.70
2017-10-14T22:51:11.899Z,10.80
2017-10-14T22:53:39.404Z,10.80
2017-10-14T22:56:06.983Z,10.80
2017-10-14T22:58:35.295Z,10.80
2017-10-14T23:01:02.809Z,10.80
2017-10-14T23:03:30.411Z,10.70
2017-10-14T23:05:58.057Z,10.60
2017-10-14T23:08:25.567Z,10.60
2017-10-14T23:10:53.180Z,10.60
2017-10-14T23:13:20.692Z,10.50
2017-10-14T23:15:48.203Z,10.40
2017-10-14T23:18:15.782Z,10.40
2017-10-14T23:20:43.291Z,10.40
2017-10-14T23:23:10.805Z,10.30
2017-10-14T23:25:38.555Z,10.20
2017-10-14T23:28:06.074Z,10.10
2017-10-14T23:30:33.595Z,10.00
2017-10-14T23:33:01.151Z,10.00
2017-10-14T23:35:28.814Z,10.00
2017-10-14T23:37:56.323Z,10.10
2017-10-14T23:40:23.883Z,10.10
2017-10-14T23:42:52.189Z,10.00
2017-10-14T23:45:19.723Z,10.00
2017-10-14T23:47:47.314Z,9.90
2017-10-14T23:50:14.823Z,9.90
2017-10-14T23:52:42.367Z,9.90
2017-10-14T23:55:10.307Z,9.90
2017-10-14T23:57:37.847Z,10.00
